sensor_id;sensor_type;location;lat;lon;timestamp;temperature;humidity
9975;DHT22;5028;50.974;4.968;2022-08-01T00:01:05;20.50;99.90
9975;DHT22;5028;50.974;4.968;2022-08-01T00:03:35;20.50;99.90
9975;DHT22;5028;50.974;4.968;2022-08-01T00:06:10;20.40;99.90
9975;DHT22;5028;50.974;4.968;2022-08-01T00:08:38;20.40;99.90
9975;DHT22;5028;50.974;4.968;2022-08-01T00:11:14;20.40;99.90
9975;DHT22;5028;50.974;4.968;2022-08-01T00:13:42;20.40;99.90
9975;DHT22;5028;50.974;4.968;2022-08-01T00:16:17;20.30;99.90
9975;DHT22;5028;50.974;4.968;2022-08-01T00:18:47;20.30;99.90
9975;DHT22;5028;50.974;4.968;2022-08-01T00:21:22;20.30;99.90
9975;DHT22;5028;50.974;4.968;2022-08-01T00:23:51;20.30;99.90
9975;DHT22;5028;50.974;4.968;2022-08-01T00:26:26;20.30;99.90
9975;DHT22;5028;50.974;4.968;2022-08-01T00:28:54;20.30;99.90
9975;DHT22;5028;50.974;4.968;2022-08-01T00:31:56;20.30;99.90
9975;DHT22;5028;50.974;4.968;2022-08-01T00:34:26;20.30;99.90
9975;DHT22;5028;50.974;4.968;2022-08-01T00:37:01;20.30;99.90
9975;DHT22;5028;50.974;4.968;2022-08-01T00:39:30;20.30;99.90
9975;DHT22;5028;50.974;4.968;2022-08-01T00:42:06;20.30;99.90
9975;DHT22;5028;50.974;4.968;2022-08-01T00:44:35;20.30;99.90
9975;DHT22;5028;50.974;4.968;2022-08-01T00:47:10;20.20;99.90
9975;DHT22;5028;50.974;4.968;2022-08-01T00:49:40;20.20;99.90
9975;DHT22;5028;50.974;4.968;2022-08-01T00:52:15;20.20;99.90
9975;DHT22;5028;50.974;4.968;2022-08-01T00:54:44;20.20;99.90
9975;DHT22;5028;50.974;4.968;2022-08-01T00:57:19;20.30;99.90
9975;DHT22;5028;50.974;4.968;2022-08-01T01:00:09;20.20;99.90
9975;DHT22;5028;50.974;4.968;2022-08-01T01:02:53;20.20;99.90
9975;DHT22;5028;50.974;4.968;2022-08-01T01:05:22;20.20;99.90
9975;DHT22;5028;50.974;4.968;2022-08-01T01:08:04;20.20;99.90
9975;DHT22;5028;50.974;4.968;2022-08-01T01:10:40;20.20;99.90
9975;DHT22;5028;50.974;4.968;2022-08-01T01:13:22;20.10;99.90
9975;DHT22;5028;50.974;4.968;2022-08-01T01:15:56;20.10;99.90
9975;DHT22;5028;50.974;4.968;2022-08-01T01:18:37;20.00;99.90
9975;DHT22;5028;50.974;4.968;2022-08-01T01:24:21;20.00;99.90
9975;DHT22;5028;50.974;4.968;2022-08-01T01:27:02;20.00;99.90
9975;DHT22;5028;50.974;4.968;2022-08-01T01:29:52;20.00;99.90
9975;DHT22;5028;50.974;4.968;2022-08-01T01:32:31;19.90;99.90
9975;DHT22;5028;50.974;4.968;2022-08-01T01:35:10;20.00;99.90
9975;DHT22;5028;50.974;4.968;2022-08-01T01:37:40;20.00;99.90
9975;DHT22;5028;50.974;4.968;2022-08-01T01:40:18;20.00;99.90
9975;DHT22;5028;50.974;4.968;2022-08-01T01:42:48;20.00;99.90
9975;DHT22;5028;50.974;4.968;2022-08-01T01:45:26;20.00;99.90
9975;DHT22;5028;50.974;4.968;2022-08-01T01:47:57;20.00;99.90
9975;DHT22;5028;50.974;4.968;2022-08-01T01:50:34;20.00;99.90
9975;DHT22;5028;50.974;4.968;2022-08-01T01:53:04;20.00;99.90
9975;DHT22;5028;50.974;4.968;2022-08-01T01:55:43;20.00;99.90
9975;DHT22;5028;50.974;4.968;2022-08-01T01:58:16;20.00;99.90
9975;DHT22;5028;50.974;4.968;2022-08-01T02:00:56;20.00;99.90
9975;DHT22;5028;50.974;4.968;2022-08-01T02:03:30;20.00;99.90
9975;DHT22;5028;50.974;4.968;2022-08-01T02:06:05;20.00;99.90
9975;DHT22;5028;50.974;4.968;2022-08-01T02:08:35;20.00;99.90
9975;DHT22;5028;50.974;4.968;2022-08-01T02:11:11;20.00;99.90
9975;DHT22;5028;50.974;4.968;2022-08-01T02:13:50;20.00;99.90
9975;DHT22;5028;50.974;4.968;2022-08-01T02:16:29;20.00;99.90
9975;DHT22;5028;50.974;4.968;2022-08-01T02:18:58;20.00;99.90
9975;DHT22;5028;50.974;4.968;2022-08-01T02:21:37;20.00;99.90
9975;DHT22;5028;50.974;4.968;2022-08-01T02:24:12;20.00;99.90
9975;DHT22;5028;50.974;4.968;2022-08-01T02:27:00;20.00;99.90
9975;DHT22;5028;50.974;4.968;2022-08-01T02:29:50;20.00;99.90
9975;DHT22;5028;50.974;4.968;2022-08-01T02:32:34;20.00;99.90
9975;DHT22;5028;50.974;4.968;2022-08-01T02:35:06;20.00;99.90
9975;DHT22;5028;50.974;4.968;2022-08-01T02:37:43;20.00;99.90
9975;DHT22;5028;50.974;4.968;2022-08-01T02:40:14;20.00;99.90
9975;DHT22;5028;50.974;4.968;2022-08-01T02:42:52;20.00;99.90
9975;DHT22;5028;50.974;4.968;2022-08-01T02:45:25;19.90;99.90
9975;DHT22;5028;50.974;4.968;2022-08-01T02:48:05;19.90;99.90
9975;DHT22;5028;50.974;4.968;2022-08-01T02:50:43;19.90;99.90
9975;DHT22;5028;50.974;4.968;2022-08-01T02:53:13;19.90;99.90
9975;DHT22;5028;50.974;4.968;2022-08-01T02:56:10;19.90;99.90
9975;DHT22;5028;50.974;4.968;2022-08-01T02:58:40;19.90;99.90
9975;DHT22;5028;50.974;4.968;2022-08-01T03:01:20;19.90;99.90
9975;DHT22;5028;50.974;4.968;2022-08-01T03:03:54;19.90;99.90
9975;DHT22;5028;50.974;4.968;2022-08-01T03:06:30;19.90;99.90
9975;DHT22;5028;50.974;4.968;2022-08-01T03:09:00;19.90;99.90
9975;DHT22;5028;50.974;4.968;2022-08-01T03:11:39;19.90;99.90
9975;DHT22;5028;50.974;4.968;2022-08-01T03:14:11;19.80;99.90
9975;DHT22;5028;50.974;4.968;2022-08-01T03:16:49;19.80;99.90
9975;DHT22;5028;50.974;4.968;2022-08-01T03:19:23;19.80;99.90
9975;DHT22;5028;50.974;4.968;2022-08-01T03:22:01;19.80;99.90
9975;DHT22;5028;50.974;4.968;2022-08-01T03:24:32;19.80;99.90
9975;DHT22;5028;50.974;4.968;2022-08-01T03:27:08;19.80;99.90
9975;DHT22;5028;50.974;4.968;2022-08-01T03:29:51;19.80;99.90
9975;DHT22;5028;50.974;4.968;2022-08-01T03:32:28;19.80;99.90
9975;DHT22;5028;50.974;4.968;2022-08-01T03:34:59;19.80;99.90
9975;DHT22;5028;50.974;4.968;2022-08-01T03:37:38;19.70;99.90
9975;DHT22;5028;50.974;4.968;2022-08-01T03:40:34;19.70;99.90
9975;DHT22;5028;50.974;4.968;2022-08-01T03:43:15;19.60;99.90
9975;DHT22;5028;50.974;4.968;2022-08-01T03:45:48;19.60;99.90
9975;DHT22;5028;50.974;4.968;2022-08-01T03:48:29;19.60;99.90
9975;DHT22;5028;50.974;4.968;2022-08-01T03:51:00;19.60;99.90
9975;DHT22;5028;50.974;4.968;2022-08-01T03:53:37;19.60;99.90
9975;DHT22;5028;50.974;4.968;2022-08-01T03:56:09;19.60;99.90
9975;DHT22;5028;50.974;4.968;2022-08-01T03:58:46;19.60;99.90
9975;DHT22;5028;50.974;4.968;2022-08-01T04:01:16;19.60;99.90
9975;DHT22;5028;50.974;4.968;2022-08-01T04:03:51;19.60;99.90
9975;DHT22;5028;50.974;4.968;2022-08-01T04:06:22;19.60;99.90
9975;DHT22;5028;50.974;4.968;2022-08-01T04:08:56;19.60;99.90
9975;DHT22;5028;50.974;4.968;2022-08-01T04:11:26;19.60;99.90
9975;DHT22;5028;50.974;4.968;2022-08-01T04:14:02;19.60;99.90
9975;DHT22;5028;50.974;4.968;2022-08-01T04:16:35;19.60;99.90
9975;DHT22;5028;50.974;4.968;2022-08-01T04:19:11;19.50;99.90
9975;DHT22;5028;50.974;4.968;2022-08-01T04:21:41;19.50;99.90
9975;DHT22;5028;50.974;4.968;2022-08-01T04:24:18;19.50;99.90
9975;DHT22;5028;50.974;4.968;2022-08-01T04:26:49;19.50;99.90
9975;DHT22;5028;50.974;4.968;2022-08-01T04:29:26;19.50;99.90
9975;DHT22;5028;50.974;4.968;2022-08-01T04:32:02;19.40;99.90
9975;DHT22;5028;50.974;4.968;2022-08-01T04:34:39;19.40;99.90
9975;DHT22;5028;50.974;4.968;2022-08-01T04:37:11;19.40;99.90
9975;DHT22;5028;50.974;4.968;2022-08-01T04:39:52;19.40;99.90
9975;DHT22;5028;50.974;4.968;2022-08-01T04:42:21;19.40;99.90
9975;DHT22;5028;50.974;4.968;2022-08-01T04:44:59;19.40;99.90
9975;DHT22;5028;50.974;4.968;2022-08-01T04:47:29;19.40;99.90
9975;DHT22;5028;50.974;4.968;2022-08-01T04:50:06;19.40;99.90
9975;DHT22;5028;50.974;4.968;2022-08-01T04:52:37;19.30;99.90
9975;DHT22;5028;50.974;4.968;2022-08-01T04:55:15;19.20;99.90
9975;DHT22;5028;50.974;4.968;2022-08-01T04:57:46;19.10;99.90
9975;DHT22;5028;50.974;4.968;2022-08-01T05:00:21;19.00;99.90
9975;DHT22;5028;50.974;4.968;2022-08-01T05:02:50;19.00;99.90
9975;DHT22;5028;50.974;4.968;2022-08-01T05:05:25;19.00;99.90
9975;DHT22;5028;50.974;4.968;2022-08-01T05:07:55;18.80;99.90
9975;DHT22;5028;50.974;4.968;2022-08-01T05:10:31;18.70;99.90
9975;DHT22;5028;50.974;4.968;2022-08-01T05:12:59;18.70;99.90
9975;DHT22;5028;50.974;4.968;2022-08-01T05:15:34;18.70;99.90
9975;DHT22;5028;50.974;4.968;2022-08-01T05:18:03;18.70;99.90
9975;DHT22;5028;50.974;4.968;2022-08-01T05:20:40;18.80;99.90
9975;DHT22;5028;50.974;4.968;2022-08-01T05:23:11;18.80;99.90
9975;DHT22;5028;50.974;4.968;2022-08-01T05:26:05;18.80;99.90
9975;DHT22;5028;50.974;4.968;2022-08-01T05:28:41;18.80;99.90
9975;DHT22;5028;50.974;4.968;2022-08-01T05:31:16;18.80;99.90
9975;DHT22;5028;50.974;4.968;2022-08-01T05:33:52;18.90;99.90
9975;DHT22;5028;50.974;4.968;2022-08-01T05:36:27;18.90;99.90
9975;DHT22;5028;50.974;4.968;2022-08-01T05:38:57;19.00;99.90
9975;DHT22;5028;50.974;4.968;2022-08-01T05:41:33;19.00;99.90
9975;DHT22;5028;50.974;4.968;2022-08-01T05:44:03;19.00;99.90
9975;DHT22;5028;50.974;4.968;2022-08-01T05:46:38;19.00;99.90
9975;DHT22;5028;50.974;4.968;2022-08-01T05:49:07;19.10;99.90
9975;DHT22;5028;50.974;4.968;2022-08-01T05:51:42;19.10;99.90
9975;DHT22;5028;50.974;4.968;2022-08-01T05:54:12;19.10;99.90
9975;DHT22;5028;50.974;4.968;2022-08-01T05:56:48;19.00;99.90
9975;DHT22;5028;50.974;4.968;2022-08-01T05:59:16;19.00;99.90
9975;DHT22;5028;50.974;4.968;2022-08-01T06:01:51;19.00;99.90
9975;DHT22;5028;50.974;4.968;2022-08-01T06:04:20;19.10;99.90
9975;DHT22;5028;50.974;4.968;2022-08-01T06:06:56;19.10;99.90
9975;DHT22;5028;50.974;4.968;2022-08-01T06:09:26;19.20;99.90
9975;DHT22;5028;50.974;4.968;2022-08-01T06:12:00;19.20;99.90
9975;DHT22;5028;50.974;4.968;2022-08-01T06:14:30;19.20;99.90
9975;DHT22;5028;50.974;4.968;2022-08-01T06:17:06;19.10;99.90
9975;DHT22;5028;50.974;4.968;2022-08-01T06:19:34;19.10;99.90
9975;DHT22;5028;50.974;4.968;2022-08-01T06:22:09;19.10;99.90
9975;DHT22;5028;50.974;4.968;2022-08-01T06:24:40;19.00;99.90
9975;DHT22;5028;50.974;4.968;2022-08-01T06:27:21;19.00;99.90
9975;DHT22;5028;50.974;4.968;2022-08-01T06:30:10;19.20;99.90
9975;DHT22;5028;50.974;4.968;2022-08-01T06:32:44;19.30;99.90
9975;DHT22;5028;50.974;4.968;2022-08-01T06:35:21;19.30;99.90
9975;DHT22;5028;50.974;4.968;2022-08-01T06:37:49;19.30;99.90
9975;DHT22;5028;50.974;4.968;2022-08-01T06:40:26;19.40;99.90
9975;DHT22;5028;50.974;4.968;2022-08-01T06:42:54;19.50;99.90
9975;DHT22;5028;50.974;4.968;2022-08-01T06:45:29;19.50;99.90
9975;DHT22;5028;50.974;4.968;2022-08-01T06:47:58;19.60;99.90
9975;DHT22;5028;50.974;4.968;2022-08-01T06:50:34;19.70;99.90
9975;DHT22;5028;50.974;4.968;2022-08-01T06:53:04;19.60;99.90
9975;DHT22;5028;50.974;4.968;2022-08-01T06:55:40;19.60;99.90
9975;DHT22;5028;50.974;4.968;2022-08-01T06:58:08;19.70;99.90
9975;DHT22;5028;50.974;4.968;2022-08-01T07:00:44;19.80;99.90
9975;DHT22;5028;50.974;4.968;2022-08-01T07:03:12;19.90;99.90
9975;DHT22;5028;50.974;4.968;2022-08-01T07:05:48;19.90;99.90
9975;DHT22;5028;50.974;4.968;2022-08-01T07:08:16;20.00;99.90
9975;DHT22;5028;50.974;4.968;2022-08-01T07:10:53;20.10;99.90
9975;DHT22;5028;50.974;4.968;2022-08-01T07:13:22;20.10;99.90
9975;DHT22;5028;50.974;4.968;2022-08-01T07:16:10;20.20;99.90
9975;DHT22;5028;50.974;4.968;2022-08-01T07:18:38;20.30;99.90
9975;DHT22;5028;50.974;4.968;2022-08-01T07:21:13;20.30;99.90
9975;DHT22;5028;50.974;4.968;2022-08-01T07:24:02;20.30;99.90
9975;DHT22;5028;50.974;4.968;2022-08-01T07:26:42;20.40;99.90
9975;DHT22;5028;50.974;4.968;2022-08-01T07:29:20;20.30;99.90
9975;DHT22;5028;50.974;4.968;2022-08-01T07:32:01;20.40;99.90
9975;DHT22;5028;50.974;4.968;2022-08-01T07:34:30;20.60;99.90
9975;DHT22;5028;50.974;4.968;2022-08-01T07:37:05;20.70;99.90
9975;DHT22;5028;50.974;4.968;2022-08-01T07:39:34;20.80;99.90
9975;DHT22;5028;50.974;4.968;2022-08-01T07:42:10;20.80;99.90
9975;DHT22;5028;50.974;4.968;2022-08-01T07:44:39;20.80;99.90
9975;DHT22;5028;50.974;4.968;2022-08-01T07:47:14;20.90;99.90
9975;DHT22;5028;50.974;4.968;2022-08-01T07:49:43;20.90;99.90
9975;DHT22;5028;50.974;4.968;2022-08-01T07:52:18;20.90;99.90
9975;DHT22;5028;50.974;4.968;2022-08-01T07:54:47;20.80;99.90
9975;DHT22;5028;50.974;4.968;2022-08-01T07:57:24;20.70;99.90
9975;DHT22;5028;50.974;4.968;2022-08-01T07:59:53;20.80;99.90
9975;DHT22;5028;50.974;4.968;2022-08-01T08:02:27;20.90;99.90
9975;DHT22;5028;50.974;4.968;2022-08-01T08:04:56;21.10;99.90
9975;DHT22;5028;50.974;4.968;2022-08-01T08:07:32;21.20;99.90
9975;DHT22;5028;50.974;4.968;2022-08-01T08:10:01;21.30;99.90
9975;DHT22;5028;50.974;4.968;2022-08-01T08:12:38;21.30;99.90
9975;DHT22;5028;50.974;4.968;2022-08-01T08:15:09;21.20;99.90
9975;DHT22;5028;50.974;4.968;2022-08-01T08:17:44;21.30;99.90
9975;DHT22;5028;50.974;4.968;2022-08-01T08:20:20;21.50;99.90
9975;DHT22;5028;50.974;4.968;2022-08-01T08:22:58;21.50;99.90
9975;DHT22;5028;50.974;4.968;2022-08-01T08:25:26;21.60;99.90
9975;DHT22;5028;50.974;4.968;2022-08-01T08:28:09;21.50;99.90
9975;DHT22;5028;50.974;4.968;2022-08-01T08:31:00;21.60;99.90
9975;DHT22;5028;50.974;4.968;2022-08-01T08:33:56;21.60;99.90
9975;DHT22;5028;50.974;4.968;2022-08-01T08:36:25;21.40;99.90
9975;DHT22;5028;50.974;4.968;2022-08-01T08:39:00;21.30;99.90
9975;DHT22;5028;50.974;4.968;2022-08-01T08:41:29;21.40;99.90
9975;DHT22;5028;50.974;4.968;2022-08-01T08:44:07;21.80;99.90
9975;DHT22;5028;50.974;4.968;2022-08-01T08:46:40;22.20;99.90
9975;DHT22;5028;50.974;4.968;2022-08-01T08:49:18;22.40;99.90
9975;DHT22;5028;50.974;4.968;2022-08-01T08:51:48;22.30;99.90
9975;DHT22;5028;50.974;4.968;2022-08-01T08:54:24;21.90;99.90
9975;DHT22;5028;50.974;4.968;2022-08-01T08:56:58;21.70;99.90
9975;DHT22;5028;50.974;4.968;2022-08-01T08:59:35;21.80;99.90
9975;DHT22;5028;50.974;4.968;2022-08-01T09:02:05;21.90;99.90
9975;DHT22;5028;50.974;4.968;2022-08-01T09:04:40;21.90;99.90
9975;DHT22;5028;50.974;4.968;2022-08-01T09:07:09;22.10;99.90
9975;DHT22;5028;50.974;4.968;2022-08-01T09:09:47;22.40;99.90
9975;DHT22;5028;50.974;4.968;2022-08-01T09:12:20;22.60;99.90
9975;DHT22;5028;50.974;4.968;2022-08-01T09:14:57;22.60;99.90
9975;DHT22;5028;50.974;4.968;2022-08-01T09:17:25;23.00;99.90
9975;DHT22;5028;50.974;4.968;2022-08-01T09:20:01;23.30;99.90
9975;DHT22;5028;50.974;4.968;2022-08-01T09:22:33;23.30;99.90
9975;DHT22;5028;50.974;4.968;2022-08-01T09:25:13;23.30;99.90
9975;DHT22;5028;50.974;4.968;2022-08-01T09:27:42;23.10;99.90
9975;DHT22;5028;50.974;4.968;2022-08-01T09:30:18;23.10;99.90
9975;DHT22;5028;50.974;4.968;2022-08-01T09:32:55;23.20;99.90
9975;DHT22;5028;50.974;4.968;2022-08-01T09:35:44;23.10;99.90
9975;DHT22;5028;50.974;4.968;2022-08-01T09:38:22;23.00;99.90
9975;DHT22;5028;50.974;4.968;2022-08-01T09:41:00;23.10;99.90
9975;DHT22;5028;50.974;4.968;2022-08-01T09:43:30;23.20;99.90
9975;DHT22;5028;50.974;4.968;2022-08-01T09:46:09;23.40;99.90
9975;DHT22;5028;50.974;4.968;2022-08-01T09:48:55;23.50;99.90
9975;DHT22;5028;50.974;4.968;2022-08-01T09:51:37;23.70;99.90
9975;DHT22;5028;50.974;4.968;2022-08-01T09:54:31;23.70;99.90
9975;DHT22;5028;50.974;4.968;2022-08-01T09:57:09;23.80;99.90
9975;DHT22;5028;50.974;4.968;2022-08-01T09:59:38;23.90;99.90
9975;DHT22;5028;50.974;4.968;2022-08-01T10:02:31;23.90;99.90
9975;DHT22;5028;50.974;4.968;2022-08-01T10:05:01;24.10;99.90
9975;DHT22;5028;50.974;4.968;2022-08-01T10:07:57;23.80;99.90
9975;DHT22;5028;50.974;4.968;2022-08-01T10:10:26;24.00;99.90
9975;DHT22;5028;50.974;4.968;2022-08-01T10:13:04;24.00;99.90
9975;DHT22;5028;50.974;4.968;2022-08-01T10:15:35;24.10;99.90
9975;DHT22;5028;50.974;4.968;2022-08-01T10:18:14;24.30;99.90
9975;DHT22;5028;50.974;4.968;2022-08-01T10:20:53;24.70;99.90
9975;DHT22;5028;50.974;4.968;2022-08-01T10:23:36;25.00;99.90
9975;DHT22;5028;50.974;4.968;2022-08-01T10:26:08;24.40;99.90
9975;DHT22;5028;50.974;4.968;2022-08-01T10:28:51;24.20;99.90
9975;DHT22;5028;50.974;4.968;2022-08-01T10:31:54;24.10;99.90
9975;DHT22;5028;50.974;4.968;2022-08-01T10:34:34;24.80;99.90
9975;DHT22;5028;50.974;4.968;2022-08-01T10:37:03;25.30;99.90
9975;DHT22;5028;50.974;4.968;2022-08-01T10:39:39;26.10;99.90
9975;DHT22;5028;50.974;4.968;2022-08-01T10:42:10;26.50;99.90
9975;DHT22;5028;50.974;4.968;2022-08-01T10:44:46;26.70;99.90
9975;DHT22;5028;50.974;4.968;2022-08-01T10:47:18;26.00;99.90
9975;DHT22;5028;50.974;4.968;2022-08-01T10:50:19;26.10;99.90
9975;DHT22;5028;50.974;4.968;2022-08-01T10:53:07;25.90;99.90
9975;DHT22;5028;50.974;4.968;2022-08-01T10:56:01;25.70;99.90
9975;DHT22;5028;50.974;4.968;2022-08-01T10:58:32;25.80;99.90
9975;DHT22;5028;50.974;4.968;2022-08-01T11:01:22;26.10;99.90
9975;DHT22;5028;50.974;4.968;2022-08-01T11:04:02;27.00;99.90
9975;DHT22;5028;50.974;4.968;2022-08-01T11:09:30;26.70;99.90
9975;DHT22;5028;50.974;4.968;2022-08-01T11:12:09;26.50;99.90
9975;DHT22;5028;50.974;4.968;2022-08-01T11:15:18;26.50;99.90
9975;DHT22;5028;50.974;4.968;2022-08-01T11:18:01;26.10;99.90
9975;DHT22;5028;50.974;4.968;2022-08-01T11:20:31;25.70;99.90
9975;DHT22;5028;50.974;4.968;2022-08-01T11:23:20;25.40;99.90
9975;DHT22;5028;50.974;4.968;2022-08-01T11:26:12;25.60;99.90
9975;DHT22;5028;50.974;4.968;2022-08-01T11:29:13;25.90;99.90
9975;DHT22;5028;50.974;4.968;2022-08-01T11:32:26;26.00;99.90
9975;DHT22;5028;50.974;4.968;2022-08-01T11:34:55;25.90;99.90
9975;DHT22;5028;50.974;4.968;2022-08-01T11:37:32;26.00;99.90
9975;DHT22;5028;50.974;4.968;2022-08-01T11:40:18;26.60;99.90
9975;DHT22;5028;50.974;4.968;2022-08-01T11:43:18;27.10;99.90
9975;DHT22;5028;50.974;4.968;2022-08-01T11:45:47;27.60;99.90
9975;DHT22;5028;50.974;4.968;2022-08-01T11:48:25;27.90;99.90
9975;DHT22;5028;50.974;4.968;2022-08-01T11:50:57;28.00;99.90
9975;DHT22;5028;50.974;4.968;2022-08-01T11:53:33;27.70;99.90
9975;DHT22;5028;50.974;4.968;2022-08-01T11:56:06;27.10;99.90
9975;DHT22;5028;50.974;4.968;2022-08-01T11:58:43;26.50;99.90
9975;DHT22;5028;50.974;4.968;2022-08-01T12:01:12;25.90;99.90
9975;DHT22;5028;50.974;4.968;2022-08-01T12:03:55;25.90;99.90
9975;DHT22;5028;50.974;4.968;2022-08-01T12:06:27;26.00;99.90
9975;DHT22;5028;50.974;4.968;2022-08-01T12:09:21;26.20;99.90
9975;DHT22;5028;50.974;4.968;2022-08-01T12:11:50;26.10;99.90
9975;DHT22;5028;50.974;4.968;2022-08-01T12:14:25;25.90;99.90
9975;DHT22;5028;50.974;4.968;2022-08-01T12:16:54;26.00;99.90
9975;DHT22;5028;50.974;4.968;2022-08-01T12:19:31;26.10;99.90
9975;DHT22;5028;50.974;4.968;2022-08-01T12:22:07;26.30;99.90
9975;DHT22;5028;50.974;4.968;2022-08-01T12:24:44;26.30;99.90
9975;DHT22;5028;50.974;4.968;2022-08-01T12:27:24;26.10;99.90
9975;DHT22;5028;50.974;4.968;2022-08-01T12:30:07;25.80;99.90
9975;DHT22;5028;50.974;4.968;2022-08-01T12:32:37;25.60;99.90
9975;DHT22;5028;50.974;4.968;2022-08-01T12:35:15;25.90;99.90
9975;DHT22;5028;50.974;4.968;2022-08-01T12:37:45;26.00;99.90
9975;DHT22;5028;50.974;4.968;2022-08-01T12:40:22;26.00;99.90
9975;DHT22;5028;50.974;4.968;2022-08-01T12:42:53;26.50;99.90
9975;DHT22;5028;50.974;4.968;2022-08-01T12:45:31;26.90;99.90
9975;DHT22;5028;50.974;4.968;2022-08-01T12:48:01;26.90;99.90
9975;DHT22;5028;50.974;4.968;2022-08-01T12:50:42;26.90;99.90
9975;DHT22;5028;50.974;4.968;2022-08-01T12:53:12;26.80;99.90
9975;DHT22;5028;50.974;4.968;2022-08-01T12:55:50;26.50;99.90
9975;DHT22;5028;50.974;4.968;2022-08-01T12:58:30;26.50;99.90
9975;DHT22;5028;50.974;4.968;2022-08-01T13:01:08;26.70;99.90
9975;DHT22;5028;50.974;4.968;2022-08-01T13:03:37;26.90;99.90
9975;DHT22;5028;50.974;4.968;2022-08-01T13:06:15;26.70;99.90
9975;DHT22;5028;50.974;4.968;2022-08-01T13:08:45;26.40;99.90
9975;DHT22;5028;50.974;4.968;2022-08-01T13:11:20;26.40;99.90
9975;DHT22;5028;50.974;4.968;2022-08-01T13:13:49;25.90;99.90
9975;DHT22;5028;50.974;4.968;2022-08-01T13:16:26;25.90;99.90
9975;DHT22;5028;50.974;4.968;2022-08-01T13:19:15;25.80;99.90
9975;DHT22;5028;50.974;4.968;2022-08-01T13:21:55;26.00;99.90
9975;DHT22;5028;50.974;4.968;2022-08-01T13:24:26;26.20;99.90
9975;DHT22;5028;50.974;4.968;2022-08-01T13:27:02;26.20;99.90
9975;DHT22;5028;50.974;4.968;2022-08-01T13:29:33;26.20;99.90
9975;DHT22;5028;50.974;4.968;2022-08-01T13:32:22;26.60;99.90
9975;DHT22;5028;50.974;4.968;2022-08-01T13:35:01;26.50;99.90
9975;DHT22;5028;50.974;4.968;2022-08-01T13:37:38;26.60;99.90
9975;DHT22;5028;50.974;4.968;2022-08-01T13:40:09;26.20;99.90
9975;DHT22;5028;50.974;4.968;2022-08-01T13:42:44;25.90;99.90
9975;DHT22;5028;50.974;4.968;2022-08-01T13:45:12;25.70;99.90
9975;DHT22;5028;50.974;4.968;2022-08-01T13:47:48;25.70;99.90
9975;DHT22;5028;50.974;4.968;2022-08-01T13:50:36;25.90;99.90
9975;DHT22;5028;50.974;4.968;2022-08-01T13:53:34;26.40;99.90
9975;DHT22;5028;50.974;4.968;2022-08-01T13:56:02;26.30;99.90
9975;DHT22;5028;50.974;4.968;2022-08-01T13:58:38;25.90;99.90
9975;DHT22;5028;50.974;4.968;2022-08-01T14:01:07;26.20;99.90
9975;DHT22;5028;50.974;4.968;2022-08-01T14:03:42;26.30;99.90
9975;DHT22;5028;50.974;4.968;2022-08-01T14:06:10;26.20;99.90
9975;DHT22;5028;50.974;4.968;2022-08-01T14:08:48;26.10;99.90
9975;DHT22;5028;50.974;4.968;2022-08-01T14:11:16;26.30;99.90
9975;DHT22;5028;50.974;4.968;2022-08-01T14:13:56;26.30;99.90
9975;DHT22;5028;50.974;4.968;2022-08-01T14:16:25;26.50;99.90
9975;DHT22;5028;50.974;4.968;2022-08-01T14:19:00;26.40;99.90
9975;DHT22;5028;50.974;4.968;2022-08-01T14:21:29;26.70;99.90
9975;DHT22;5028;50.974;4.968;2022-08-01T14:24:07;26.90;99.90
9975;DHT22;5028;50.974;4.968;2022-08-01T14:26:36;26.60;99.90
9975;DHT22;5028;50.974;4.968;2022-08-01T14:29:11;27.00;99.90
9975;DHT22;5028;50.974;4.968;2022-08-01T14:31:51;27.40;99.60
9975;DHT22;5028;50.974;4.968;2022-08-01T14:34:27;27.20;99.90
9975;DHT22;5028;50.974;4.968;2022-08-01T14:36:55;27.00;99.90
9975;DHT22;5028;50.974;4.968;2022-08-01T14:39:35;27.20;99.90
9975;DHT22;5028;50.974;4.968;2022-08-01T14:42:04;27.40;99.90
9975;DHT22;5028;50.974;4.968;2022-08-01T14:44:39;27.50;99.40
9975;DHT22;5028;50.974;4.968;2022-08-01T14:47:15;27.20;99.70
9975;DHT22;5028;50.974;4.968;2022-08-01T14:49:50;27.00;99.90
9975;DHT22;5028;50.974;4.968;2022-08-01T14:52:19;27.10;99.90
9975;DHT22;5028;50.974;4.968;2022-08-01T14:54:55;26.70;99.90
9975;DHT22;5028;50.974;4.968;2022-08-01T14:57:24;26.90;99.90
9975;DHT22;5028;50.974;4.968;2022-08-01T14:59:59;27.10;99.90
9975;DHT22;5028;50.974;4.968;2022-08-01T15:02:27;27.30;99.70
9975;DHT22;5028;50.974;4.968;2022-08-01T15:05:02;27.30;99.10
9975;DHT22;5028;50.974;4.968;2022-08-01T15:07:31;26.60;99.70
9975;DHT22;5028;50.974;4.968;2022-08-01T15:10:19;26.50;99.60
9975;DHT22;5028;50.974;4.968;2022-08-01T15:12:48;26.50;99.90
9975;DHT22;5028;50.974;4.968;2022-08-01T15:15:23;26.70;99.90
9975;DHT22;5028;50.974;4.968;2022-08-01T15:17:52;26.60;99.90
9975;DHT22;5028;50.974;4.968;2022-08-01T15:20:27;26.70;99.90
9975;DHT22;5028;50.974;4.968;2022-08-01T15:22:56;26.70;99.90
9975;DHT22;5028;50.974;4.968;2022-08-01T15:25:32;26.60;99.90
9975;DHT22;5028;50.974;4.968;2022-08-01T15:28:08;26.50;99.90
9975;DHT22;5028;50.974;4.968;2022-08-01T15:30:43;26.30;99.90
9975;DHT22;5028;50.974;4.968;2022-08-01T15:33:25;26.30;99.90
9975;DHT22;5028;50.974;4.968;2022-08-01T15:36:01;26.20;99.90
9975;DHT22;5028;50.974;4.968;2022-08-01T15:38:29;26.10;99.90
9975;DHT22;5028;50.974;4.968;2022-08-01T15:41:06;26.20;99.90
9975;DHT22;5028;50.974;4.968;2022-08-01T15:43:35;26.30;99.90
9975;DHT22;5028;50.974;4.968;2022-08-01T15:46:11;26.40;99.90
9975;DHT22;5028;50.974;4.968;2022-08-01T15:48:39;26.20;99.90
9975;DHT22;5028;50.974;4.968;2022-08-01T15:51:14;26.10;99.90
9975;DHT22;5028;50.974;4.968;2022-08-01T15:53:43;26.10;99.90
9975;DHT22;5028;50.974;4.968;2022-08-01T15:56:20;26.10;99.90
9975;DHT22;5028;50.974;4.968;2022-08-01T15:58:49;26.10;99.90
9975;DHT22;5028;50.974;4.968;2022-08-01T16:01:24;26.00;99.90
9975;DHT22;5028;50.974;4.968;2022-08-01T16:03:54;26.00;99.90
9975;DHT22;5028;50.974;4.968;2022-08-01T16:06:29;25.80;99.90
9975;DHT22;5028;50.974;4.968;2022-08-01T16:08:58;25.80;99.90
9975;DHT22;5028;50.974;4.968;2022-08-01T16:11:34;25.70;99.90
9975;DHT22;5028;50.974;4.968;2022-08-01T16:14:10;25.90;99.90
9975;DHT22;5028;50.974;4.968;2022-08-01T16:16:45;25.80;99.90
9975;DHT22;5028;50.974;4.968;2022-08-01T16:19:14;25.70;99.90
9975;DHT22;5028;50.974;4.968;2022-08-01T16:21:50;25.40;99.90
9975;DHT22;5028;50.974;4.968;2022-08-01T16:24:18;25.30;99.90
9975;DHT22;5028;50.974;4.968;2022-08-01T16:26:55;25.00;99.90
9975;DHT22;5028;50.974;4.968;2022-08-01T16:29:24;24.90;99.90
9975;DHT22;5028;50.974;4.968;2022-08-01T16:32:04;25.00;99.90
9975;DHT22;5028;50.974;4.968;2022-08-01T16:35:00;25.00;99.90
9975;DHT22;5028;50.974;4.968;2022-08-01T16:37:35;25.00;99.90
9975;DHT22;5028;50.974;4.968;2022-08-01T16:40:05;25.00;99.90
9975;DHT22;5028;50.974;4.968;2022-08-01T16:42:41;25.00;99.90
9975;DHT22;5028;50.974;4.968;2022-08-01T16:45:10;24.90;99.90
9975;DHT22;5028;50.974;4.968;2022-08-01T16:47:47;24.90;99.90
9975;DHT22;5028;50.974;4.968;2022-08-01T16:50:16;24.80;99.90
9975;DHT22;5028;50.974;4.968;2022-08-01T16:52:54;24.70;99.90
9975;DHT22;5028;50.974;4.968;2022-08-01T16:55:23;24.80;99.90
9975;DHT22;5028;50.974;4.968;2022-08-01T16:58:19;24.90;99.90
9975;DHT22;5028;50.974;4.968;2022-08-01T17:00:53;24.90;99.90
9975;DHT22;5028;50.974;4.968;2022-08-01T17:03:48;24.90;99.90